createdAt,value
2023-02-24T00:02:06.344Z,1.56
2023-02-24T00:04:40.968Z,1.48
2023-02-24T00:07:12.929Z,1.41
2023-02-24T00:09:41.606Z,1.33
2023-02-24T00:12:15.790Z,1.25
2023-02-24T00:14:45.565Z,1.17
2023-02-24T00:17:14.892Z,1.08
2023-02-24T00:19:44.128Z,1.00
2023-02-24T00:22:13.089Z,0.95
2023-02-24T00:24:42.379Z,0.91
2023-02-24T00:27:13.560Z,0.87
2023-02-24T00:29:42.242Z,0.83
2023-02-24T00:32:13.601Z,0.82
2023-02-24T00:34:43.518Z,0.83
2023-02-24T00:37:12.405Z,0.84
2023-02-24T00:39:42.240Z,0.86
2023-02-24T00:42:12.054Z,0.89
2023-02-24T00:44:45.895Z,0.91
2023-02-24T00:47:17.112Z,0.95
2023-02-24T00:49:46.312Z,0.98
2023-02-24T00:52:20.643Z,1.02
2023-02-24T00:54:50.342Z,1.05
2023-02-24T00:57:23.223Z,1.01
2023-02-24T00:59:54.863Z,0.99
2023-02-24T01:02:23.095Z,1.00
2023-02-24T01:04:52.282Z,0.99
2023-02-24T01:07:20.617Z,0.98
2023-02-24T01:09:50.700Z,0.97
2023-02-24T01:12:38.166Z,0.94
2023-02-24T01:15:09.662Z,0.91
2023-02-24T01:17:38.101Z,0.89
2023-02-24T01:20:18.560Z,0.87
2023-02-24T01:22:50.747Z,0.86
2023-02-24T01:25:20.964Z,0.85
2023-02-24T01:27:49.691Z,0.86
2023-02-24T01:30:18.781Z,0.87
2023-02-24T01:32:47.919Z,0.90
2023-02-24T01:35:16.695Z,0.93
2023-02-24T01:37:45.862Z,0.96
2023-02-24T01:40:21.150Z,0.99
2023-02-24T01:42:50.595Z,0.99
2023-02-24T01:45:25.704Z,1.01
2023-02-24T01:47:58.882Z,1.02
2023-02-24T01:50:29.367Z,1.01
2023-02-24T01:53:03.787Z,1.02
2023-02-24T01:55:41.086Z,1.02
2023-02-24T01:58:17.542Z,1.01
2023-02-24T02:00:47.432Z,0.97
2023-02-24T02:03:35.645Z,0.94
2023-02-24T02:06:09.403Z,0.85
2023-02-24T02:08:42.522Z,0.78
2023-02-24T02:11:15.176Z,0.74
2023-02-24T02:13:45.446Z,0.70
2023-02-24T02:16:28.255Z,0.65
2023-02-24T02:19:30.808Z,0.59
2023-02-24T02:22:27.286Z,0.53
2023-02-24T02:25:07.468Z,0.49
2023-02-24T02:27:58.883Z,0.48
2023-02-24T02:30:48.168Z,0.48
2023-02-24T02:33:39.860Z,0.50
2023-02-24T02:36:12.720Z,0.51
2023-02-24T02:39:03.864Z,0.52
2023-02-24T02:41:59.506Z,0.56
2023-02-24T02:44:45.199Z,0.60
2023-02-24T02:47:18.449Z,0.63
2023-02-24T02:49:52.233Z,0.66
2023-02-24T02:52:32.715Z,0.69
2023-02-24T02:55:18.820Z,0.65
2023-02-24T02:57:52.158Z,0.65
2023-02-24T03:00:30.066Z,0.66
2023-02-24T03:03:07.619Z,0.68
2023-02-24T03:05:47.249Z,0.70
2023-02-24T03:08:21.798Z,0.70
2023-02-24T03:10:53.648Z,0.69
2023-02-24T03:13:26.743Z,0.66
2023-02-24T03:16:00.247Z,0.66
2023-02-24T03:18:33.839Z,0.67
2023-02-24T03:21:29.232Z,0.67
2023-02-24T03:23:57.797Z,0.70
2023-02-24T03:26:53.022Z,0.74
2023-02-24T03:29:32.660Z,0.80
2023-02-24T03:32:09.407Z,0.86
2023-02-24T03:34:51.586Z,0.94
2023-02-24T03:37:25.832Z,1.04
2023-02-24T03:39:57.948Z,1.08
2023-02-24T03:42:33.980Z,1.09
2023-02-24T03:45:03.076Z,1.13
2023-02-24T03:47:33.285Z,1.17
2023-02-24T03:50:01.694Z,1.20
2023-02-24T03:52:53.656Z,1.22
2023-02-24T03:55:34.388Z,1.24
2023-02-24T03:58:05.885Z,1.24
2023-02-24T04:00:58.929Z,1.24
2023-02-24T04:04:00.548Z,1.20
2023-02-24T04:06:56.331Z,1.16
2023-02-24T04:10:03.170Z,1.09
2023-02-24T04:12:53.421Z,1.03
2023-02-24T04:15:29.715Z,0.97
2023-02-24T04:18:04.759Z,0.88
2023-02-24T04:20:40.117Z,0.80
2023-02-24T04:23:16.032Z,0.76
2023-02-24T04:25:50.977Z,0.74
2023-02-24T04:28:24.941Z,0.77
2023-02-24T04:30:58.722Z,0.81
2023-02-24T04:33:27.726Z,0.86
2023-02-24T04:35:55.977Z,0.90
2023-02-24T04:38:26.347Z,0.92
2023-02-24T04:40:55.071Z,0.92
2023-02-24T04:43:24.290Z,0.91
2023-02-24T04:45:52.811Z,0.89
2023-02-24T04:48:21.161Z,0.87
2023-02-24T04:50:55.731Z,0.82
2023-02-24T04:53:28.355Z,0.77
2023-02-24T04:55:56.859Z,0.70
2023-02-24T04:58:30.153Z,0.64
2023-02-24T05:00:58.913Z,0.58
2023-02-24T05:03:30.406Z,0.55
2023-02-24T05:06:00.558Z,0.55
2023-02-24T05:08:31.446Z,0.54
2023-02-24T05:11:04.202Z,0.57
2023-02-24T05:13:33.956Z,0.60
2023-02-24T05:16:08.622Z,0.65
2023-02-24T05:18:38.476Z,0.71
2023-02-24T05:21:33.197Z,0.76
2023-02-24T05:24:11.721Z,0.83
2023-02-24T05:26:43.365Z,0.91
2023-02-24T05:29:12.631Z,0.99
2023-02-24T05:31:41.548Z,1.07
2023-02-24T05:34:16.271Z,1.14
2023-02-24T05:36:46.157Z,1.18
2023-02-24T05:39:19.523Z,1.21
2023-02-24T05:41:50.023Z,1.22
2023-02-24T05:44:23.226Z,1.24
2023-02-24T05:46:58.484Z,1.26
2023-02-24T05:49:34.094Z,1.27
2023-02-24T05:52:08.293Z,1.27
2023-02-24T05:54:42.113Z,1.28
2023-02-24T05:57:17.722Z,1.30
2023-02-24T05:59:48.815Z,1.32
2023-02-24T06:02:27.777Z,1.35
2023-02-24T06:04:57.287Z,1.37
2023-02-24T06:07:29.831Z,1.40
2023-02-24T06:09:58.997Z,1.46
2023-02-24T06:12:30.644Z,1.54
2023-02-24T06:14:59.591Z,1.64
2023-02-24T06:17:28.788Z,1.72
2023-02-24T06:19:57.478Z,1.78
2023-02-24T06:22:27.097Z,1.87
2023-02-24T06:24:57.211Z,1.98
2023-02-24T06:27:26.241Z,2.04
2023-02-24T06:29:55.714Z,2.02
2023-02-24T06:32:26.711Z,1.98
2023-02-24T06:34:57.654Z,1.92
2023-02-24T06:37:27.107Z,1.89
2023-02-24T06:39:58.417Z,1.87
2023-02-24T06:42:26.748Z,1.86
2023-02-24T06:44:55.184Z,1.89
2023-02-24T06:47:23.481Z,1.93
2023-02-24T06:49:51.901Z,1.96
2023-02-24T06:52:20.784Z,2.02
2023-02-24T06:54:49.902Z,2.11
2023-02-24T06:57:18.537Z,2.15
2023-02-24T06:59:49.188Z,2.16
2023-02-24T07:02:18.492Z,2.16
2023-02-24T07:04:47.774Z,2.22
2023-02-24T07:07:17.740Z,2.35
2023-02-24T07:09:46.733Z,2.50
2023-02-24T07:12:21.227Z,2.59
2023-02-24T07:14:50.754Z,2.70
2023-02-24T07:17:19.622Z,2.80
2023-02-24T07:19:48.342Z,2.88
2023-02-24T07:22:17.822Z,3.02
2023-02-24T07:24:46.597Z,3.14
2023-02-24T07:27:23.305Z,3.28
2023-02-24T07:29:54.004Z,3.49
2023-02-24T07:32:23.283Z,3.73
2023-02-24T07:34:53.200Z,3.99
2023-02-24T07:37:23.862Z,4.25
2023-02-24T07:39:52.788Z,4.48
2023-02-24T07:42:22.863Z,4.63
2023-02-24T07:44:59.109Z,4.72
2023-02-24T07:47:27.740Z,4.74
2023-02-24T07:49:56.335Z,4.82
2023-02-24T07:52:24.877Z,4.87
2023-02-24T07:54:55.347Z,4.91
2023-02-24T07:57:25.403Z,4.86
2023-02-24T07:59:54.845Z,4.80
2023-02-24T08:02:24.779Z,4.78
2023-02-24T08:04:54.696Z,4.83
2023-02-24T08:07:25.951Z,4.97
2023-02-24T08:10:13.242Z,5.06
2023-02-24T08:12:45.728Z,5.08
2023-02-24T08:15:24.665Z,5.10
2023-02-24T08:17:59.935Z,5.17
2023-02-24T08:20:51.727Z,5.30
2023-02-24T08:23:20.911Z,5.36
2023-02-24T08:25:51.663Z,5.37
2023-02-24T08:28:21.479Z,5.36
2023-02-24T08:30:50.654Z,5.38
2023-02-24T08:33:22.305Z,5.32
2023-02-24T08:36:01.573Z,5.17
2023-02-24T08:38:42.467Z,5.08
2023-02-24T08:41:18.530Z,4.97
2023-02-24T08:43:49.143Z,4.82
2023-02-24T08:46:25.947Z,4.80
2023-02-24T08:49:00.824Z,4.83
2023-02-24T08:51:35.262Z,4.81
2023-02-24T08:54:15.881Z,4.77
2023-02-24T08:56:56.437Z,4.82
2023-02-24T08:59:43.727Z,4.87
2023-02-24T09:02:23.695Z,4.95
2023-02-24T09:05:05.321Z,4.95
2023-02-24T09:07:42.073Z,4.84
2023-02-24T09:10:20.765Z,4.74
2023-02-24T09:12:49.508Z,4.75
2023-02-24T09:15:18.443Z,4.85
2023-02-24T09:17:47.043Z,4.91
2023-02-24T09:20:27.704Z,4.98
2023-02-24T09:23:00.023Z,5.02
2023-02-24T09:26:06.913Z,5.05
2023-02-24T09:28:48.924Z,5.03
2023-02-24T09:31:17.851Z,4.93
2023-02-24T09:33:51.556Z,4.84
2023-02-24T09:36:28.340Z,4.80
2023-02-24T09:39:02.438Z,4.74
2023-02-24T09:41:56.224Z,4.67
2023-02-24T09:44:35.732Z,4.57
2023-02-24T09:47:31.519Z,4.47
2023-02-24T09:50:14.487Z,4.44
2023-02-24T09:52:43.846Z,4.45
2023-02-24T09:55:25.409Z,4.48
2023-02-24T09:58:17.114Z,4.51
2023-02-24T10:01:33.861Z,4.51
2023-02-24T10:04:36.965Z,4.44
2023-02-24T10:07:29.268Z,4.39
2023-02-24T10:10:25.878Z,4.46
2023-02-24T10:13:17.397Z,4.55
2023-02-24T10:15:57.846Z,4.60
2023-02-24T10:18:33.532Z,4.69
2023-02-24T10:21:46.738Z,4.80
2023-02-24T10:24:23.087Z,4.82
2023-02-24T10:27:24.296Z,4.84
2023-02-24T10:30:01.291Z,4.92
2023-02-24T10:32:48.541Z,5.01
2023-02-24T10:35:21.072Z,5.07
2023-02-24T10:37:49.543Z,5.17
2023-02-24T10:40:26.792Z,5.21
2023-02-24T10:43:11.399Z,5.21
2023-02-24T10:45:48.090Z,5.23
2023-02-24T10:48:40.790Z,5.27
2023-02-24T10:51:30.432Z,5.33
2023-02-24T10:54:34.405Z,5.41
2023-02-24T10:57:18.261Z,5.43
2023-02-24T11:00:18.531Z,5.41
2023-02-24T11:03:07.141Z,5.46
2023-02-24T11:06:04.545Z,5.50
2023-02-24T11:08:54.848Z,5.55
2023-02-24T11:11:52.506Z,5.62
2023-02-24T11:14:42.850Z,5.68
2023-02-24T11:17:27.372Z,5.73
2023-02-24T11:20:00.197Z,5.77
2023-02-24T11:22:34.489Z,5.84
2023-02-24T11:25:29.189Z,5.89
2023-02-24T11:27:58.220Z,5.96
2023-02-24T11:30:34.913Z,6.07
2023-02-24T11:33:12.724Z,6.20
2023-02-24T11:36:15.119Z,6.32
2023-02-24T11:39:02.814Z,6.47
2023-02-24T11:41:51.385Z,6.60
2023-02-24T11:45:04.551Z,6.75
2023-02-24T11:47:41.845Z,7.03
2023-02-24T11:50:50.423Z,7.29
2023-02-24T11:53:30.999Z,7.43
2023-02-24T11:56:12.162Z,7.50
2023-02-24T11:58:54.926Z,7.52
2023-02-24T12:01:26.899Z,7.56
2023-02-24T12:04:11.206Z,7.62
2023-02-24T12:06:51.956Z,7.71
2023-02-24T12:09:26.808Z,7.80
2023-02-24T12:12:16.850Z,7.92
2023-02-24T12:14:53.869Z,8.07
2023-02-24T12:17:37.088Z,8.28
2023-02-24T12:20:26.222Z,8.40
2023-02-24T12:23:23.644Z,8.42
2023-02-24T12:26:18.099Z,8.51
2023-02-24T12:29:18.811Z,8.61
2023-02-24T12:32:03.208Z,8.67
2023-02-24T12:35:10.996Z,8.66
2023-02-24T12:37:45.252Z,8.66
2023-02-24T12:40:16.869Z,8.63
2023-02-24T12:43:03.520Z,8.55
2023-02-24T12:45:52.363Z,8.60
2023-02-24T12:48:35.378Z,8.69
2023-02-24T12:51:22.318Z,8.76
2023-02-24T12:54:00.367Z,8.74
2023-02-24T12:56:33.487Z,8.70
2023-02-24T12:59:05.802Z,8.72
2023-02-24T13:01:57.427Z,8.74
2023-02-24T13:04:32.384Z,8.77
2023-02-24T13:07:31.925Z,8.83
2023-02-24T13:10:19.397Z,8.92
2023-02-24T13:13:13.039Z,9.06
2023-02-24T13:15:55.916Z,9.23
2023-02-24T13:18:36.595Z,9.42
2023-02-24T13:21:07.779Z,9.54
2023-02-24T13:23:40.896Z,9.62
2023-02-24T13:26:10.943Z,9.46
2023-02-24T13:28:39.802Z,9.36
2023-02-24T13:31:09.642Z,9.26
2023-02-24T13:33:40.692Z,9.22
2023-02-24T13:36:12.897Z,9.14
2023-02-24T13:39:41.651Z,8.83
2023-02-24T13:42:22.324Z,8.60
2023-02-24T13:45:17.542Z,8.44
2023-02-24T13:48:10.720Z,8.39
2023-02-24T13:51:03.899Z,8.41
2023-02-24T13:53:52.057Z,8.37
2023-02-24T13:57:08.192Z,8.35
2023-02-24T13:59:57.623Z,8.32
2023-02-24T14:02:30.053Z,8.28
2023-02-24T14:05:08.600Z,8.26
2023-02-24T14:07:39.855Z,8.31
2023-02-24T14:10:21.700Z,8.38
2023-02-24T14:12:51.876Z,8.43
2023-02-24T14:15:24.414Z,8.43
2023-02-24T14:18:02.501Z,8.35
2023-02-24T14:20:38.115Z,8.26
2023-02-24T14:23:22.633Z,8.22
2023-02-24T14:26:04.734Z,8.18
2023-02-24T14:28:42.263Z,8.15
2023-02-24T14:31:14.701Z,8.14
2023-02-24T14:33:45.733Z,8.14
2023-02-24T14:36:18.439Z,8.11
2023-02-24T14:38:46.830Z,8.07
2023-02-24T14:41:25.035Z,8.09
2023-02-24T14:43:54.536Z,8.09
2023-02-24T14:46:24.314Z,8.10
2023-02-24T14:48:56.624Z,8.06
2023-02-24T14:51:36.688Z,8.03
2023-02-24T14:54:16.141Z,8.03
2023-02-24T14:56:45.221Z,8.01
2023-02-24T14:59:35.443Z,7.95
2023-02-24T15:02:11.715Z,7.91
2023-02-24T15:04:43.884Z,7.85
2023-02-24T15:07:22.705Z,7.82
2023-02-24T15:09:52.473Z,7.86
2023-02-24T15:12:31.584Z,7.89
2023-02-24T15:15:05.411Z,7.92
2023-02-24T15:17:40.396Z,7.93
2023-02-24T15:20:25.398Z,7.95
2023-02-24T15:22:54.990Z,7.95
2023-02-24T15:25:41.896Z,7.89
2023-02-24T15:28:36.263Z,7.79
2023-02-24T15:31:16.108Z,7.73
2023-02-24T15:34:02.342Z,7.67
2023-02-24T15:36:36.452Z,7.63
2023-02-24T15:39:09.248Z,7.60
2023-02-24T15:41:41.179Z,7.59
2023-02-24T15:44:29.564Z,7.59
2023-02-24T15:47:12.883Z,7.55
2023-02-24T15:49:41.443Z,7.54
2023-02-24T15:52:11.292Z,7.52
2023-02-24T15:54:42.817Z,7.50
2023-02-24T15:57:15.223Z,7.46
2023-02-24T15:59:44.415Z,7.43
2023-02-24T16:02:20.037Z,7.41
2023-02-24T16:04:49.680Z,7.36
2023-02-24T16:07:22.544Z,7.29
2023-02-24T16:09:53.792Z,7.21
2023-02-24T16:12:47.846Z,7.12
2023-02-24T16:15:21.422Z,7.01
2023-02-24T16:17:51.719Z,6.90
2023-02-24T16:20:31.774Z,6.80
2023-02-24T16:23:05.267Z,6.70
2023-02-24T16:25:39.110Z,6.60
2023-02-24T16:28:08.619Z,6.51
2023-02-24T16:30:37.519Z,6.44
2023-02-24T16:33:06.253Z,6.39
2023-02-24T16:35:34.739Z,6.34
2023-02-24T16:38:03.531Z,6.31
2023-02-24T16:40:38.733Z,6.30
2023-02-24T16:43:07.378Z,6.29
2023-02-24T16:45:38.321Z,6.29
2023-02-24T16:48:14.384Z,6.30
2023-02-24T16:50:44.139Z,6.34
2023-02-24T16:53:16.368Z,6.38
2023-02-24T16:55:44.938Z,6.39
2023-02-24T16:58:14.393Z,6.41
2023-02-24T17:00:46.565Z,6.45
2023-02-24T17:03:24.789Z,6.48
2023-02-24T17:05:54.065Z,6.51
2023-02-24T17:08:23.639Z,6.52
2023-02-24T17:10:52.333Z,6.49
2023-02-24T17:13:22.387Z,6.48
2023-02-24T17:15:57.597Z,6.46
2023-02-24T17:18:26.841Z,6.43
2023-02-24T17:20:55.248Z,6.39
2023-02-24T17:23:23.960Z,6.36
2023-02-24T17:25:55.122Z,6.32
2023-02-24T17:28:24.529Z,6.28
2023-02-24T17:30:52.986Z,6.25
2023-02-24T17:33:22.220Z,6.22
2023-02-24T17:35:50.936Z,6.21
2023-02-24T17:38:22.450Z,6.19
2023-02-24T17:40:51.086Z,6.16
2023-02-24T17:43:19.566Z,6.13
2023-02-24T17:45:47.974Z,6.11
2023-02-24T17:48:16.654Z,6.10
2023-02-24T17:50:46.026Z,6.09
2023-02-24T17:53:15.482Z,6.09
2023-02-24T17:56:01.030Z,6.07
2023-02-24T17:58:30.790Z,6.05
2023-02-24T18:01:02.403Z,6.03
2023-02-24T18:03:31.377Z,6.01
2023-02-24T18:06:07.425Z,5.98
2023-02-24T18:08:40.880Z,5.94
2023-02-24T18:11:14.335Z,5.90
2023-02-24T18:13:43.653Z,5.86
2023-02-24T18:16:15.221Z,5.83
2023-02-24T18:18:43.276Z,5.80
2023-02-24T18:21:11.508Z,5.79
2023-02-24T18:23:40.971Z,5.76
2023-02-24T18:26:11.951Z,5.75
2023-02-24T18:28:40.229Z,5.76
2023-02-24T18:31:14.214Z,5.77
2023-02-24T18:33:43.342Z,5.82
2023-02-24T18:36:12.927Z,5.84
2023-02-24T18:38:41.800Z,5.85
2023-02-24T18:41:15.768Z,5.89
2023-02-24T18:43:47.189Z,5.94
2023-02-24T18:46:16.228Z,5.98
2023-02-24T18:48:46.098Z,5.96
2023-02-24T18:51:17.666Z,5.97
2023-02-24T18:53:47.312Z,6.02
2023-02-24T18:56:18.331Z,6.04
2023-02-24T18:58:49.652Z,6.03
2023-02-24T19:01:39.832Z,6.05
2023-02-24T19:04:09.139Z,6.07
2023-02-24T19:06:37.764Z,6.07
2023-02-24T19:09:11.308Z,6.06
2023-02-24T19:11:40.827Z,6.03
2023-02-24T19:14:12.162Z,5.95
2023-02-24T19:16:40.924Z,5.87
2023-02-24T19:19:13.973Z,5.85
2023-02-24T19:21:45.613Z,5.84
2023-02-24T19:24:14.515Z,5.80
2023-02-24T19:26:46.076Z,5.77
2023-02-24T19:29:14.955Z,5.74
2023-02-24T19:31:44.542Z,5.71
2023-02-24T19:34:14.356Z,5.70
2023-02-24T19:36:42.858Z,5.65
2023-02-24T19:39:14.618Z,5.60
2023-02-24T19:41:43.193Z,5.59
2023-02-24T19:44:11.247Z,5.56
2023-02-24T19:46:39.651Z,5.51
2023-02-24T19:49:07.742Z,5.46
2023-02-24T19:51:35.905Z,5.41
2023-02-24T19:54:06.120Z,5.35
2023-02-24T19:56:36.951Z,5.26
2023-02-24T19:59:07.934Z,5.18
2023-02-24T20:01:36.225Z,5.13
2023-02-24T20:04:05.736Z,5.11
2023-02-24T20:06:40.187Z,5.12
2023-02-24T20:09:21.536Z,5.12
2023-02-24T20:11:51.481Z,5.11
2023-02-24T20:14:20.378Z,5.13
2023-02-24T20:16:48.788Z,5.16
2023-02-24T20:19:18.370Z,5.19
2023-02-24T20:21:47.708Z,5.22
2023-02-24T20:24:17.602Z,5.19
2023-02-24T20:26:48.204Z,5.19
2023-02-24T20:29:18.176Z,5.19
2023-02-24T20:31:46.719Z,5.16
2023-02-24T20:34:16.876Z,5.13
2023-02-24T20:36:45.689Z,5.10
2023-02-24T20:39:13.747Z,5.08
2023-02-24T20:41:42.645Z,5.05
2023-02-24T20:44:11.783Z,5.02
2023-02-24T20:46:40.095Z,4.97
2023-02-24T20:49:11.236Z,4.94
2023-02-24T20:51:39.688Z,4.89
2023-02-24T20:54:10.059Z,4.87
2023-02-24T20:56:41.846Z,4.89
2023-02-24T20:59:16.724Z,4.93
2023-02-24T21:01:47.802Z,4.98
2023-02-24T21:04:19.154Z,5.04
2023-02-24T21:06:48.313Z,5.09
2023-02-24T21:09:17.006Z,5.16
2023-02-24T21:11:45.136Z,5.24
2023-02-24T21:14:17.456Z,5.30
2023-02-24T21:16:49.832Z,5.36
2023-02-24T21:19:20.286Z,5.43
2023-02-24T21:21:48.488Z,5.49
2023-02-24T21:24:16.857Z,5.52
2023-02-24T21:26:46.174Z,5.53
2023-02-24T21:29:14.642Z,5.52
2023-02-24T21:31:43.332Z,5.50
2023-02-24T21:34:12.341Z,5.48
2023-02-24T21:36:40.521Z,5.44
2023-02-24T21:39:09.048Z,5.40
2023-02-24T21:41:37.184Z,5.37
2023-02-24T21:44:05.369Z,5.33
2023-02-24T21:46:33.853Z,5.29
2023-02-24T21:49:02.123Z,5.23
2023-02-24T21:51:30.315Z,5.16
2023-02-24T21:53:58.591Z,5.10
2023-02-24T21:56:29.897Z,5.06
2023-02-24T21:59:00.915Z,5.03
2023-02-24T22:01:41.387Z,5.04
2023-02-24T22:04:15.450Z,5.06
2023-02-24T22:06:45.073Z,5.08
2023-02-24T22:09:19.858Z,5.10
2023-02-24T22:11:49.472Z,5.13
2023-02-24T22:14:17.940Z,5.13
2023-02-24T22:16:46.208Z,5.14
2023-02-24T22:19:14.600Z,5.10
2023-02-24T22:21:43.150Z,5.11
2023-02-24T22:24:14.486Z,5.15
2023-02-24T22:26:43.695Z,5.19
2023-02-24T22:29:12.394Z,5.23
2023-02-24T22:31:43.748Z,5.26
2023-02-24T22:34:13.502Z,5.30
2023-02-24T22:36:42.142Z,5.34
2023-02-24T22:39:10.917Z,5.37
2023-02-24T22:41:39.275Z,5.42
2023-02-24T22:44:07.628Z,5.45
2023-02-24T22:46:38.344Z,5.49
2023-02-24T22:49:07.074Z,5.54
2023-02-24T22:51:35.225Z,5.61
2023-02-24T22:54:04.500Z,5.66
2023-02-24T22:56:32.893Z,5.66
2023-02-24T22:59:01.394Z,5.67
2023-02-24T23:01:32.995Z,5.68
2023-02-24T23:04:03.821Z,5.70
2023-02-24T23:06:33.032Z,5.68
2023-02-24T23:09:02.657Z,5.58
2023-02-24T23:11:34.080Z,5.55
2023-02-24T23:14:06.188Z,5.55
2023-02-24T23:16:37.225Z,5.55
2023-02-24T23:19:10.835Z,5.54
2023-02-24T23:21:42.442Z,5.53
2023-02-24T23:24:13.630Z,5.52
2023-02-24T23:26:47.763Z,5.49
2023-02-24T23:29:20.612Z,5.46
2023-02-24T23:31:48.942Z,5.41
2023-02-24T23:34:17.122Z,5.19
2023-02-24T23:36:47.178Z,5.07
2023-02-24T23:39:18.493Z,5.02
2023-02-24T23:41:46.635Z,5.03
2023-02-24T23:44:14.861Z,5.04
2023-02-24T23:46:43.195Z,5.05
2023-02-24T23:49:11.730Z,5.07
2023-02-24T23:51:48.051Z,5.10
2023-02-24T23:54:18.479Z,5.13
2023-02-24T23:56:46.921Z,5.17
2023-02-24T23:59:15.515Z,5.17
